Time;durP1;ratioP1;P1;durP2;ratioP2;P2;SDS_P1;SDS_P2;PMS_P1;PMS_P2;Temp;Humidity;BMP_temperature;BMP_pressure;BME280_temperature;BME280_humidity;BME280_pressure;Samples;Min_cycle;Max_cycle;Signal;HPM_P1;HPM_P2
2021/08/02 00:02:03;;;;;;;4.00;2.50;;;16.80;99.90;;;;;;5044683;28;20042;-71
2021/08/02 00:04:32;;;;;;;3.92;2.10;;;16.70;99.90;;;;;;5080701;28;20107;-71
2021/08/02 00:07:07;;;;;;;4.10;2.20;;;16.70;99.90;;;;;;5029247;28;20033;-71
2021/08/02 00:09:35;;;;;;;3.53;1.90;;;16.70;99.90;;;;;;5066871;28;20053;-71
2021/08/02 00:12:04;;;;;;;5.57;2.55;;;16.70;99.90;;;;;;5051011;28;20020;-71
2021/08/02 00:14:30;;;;;;;3.95;2.35;;;16.70;99.90;;;;;;5085149;28;20063;-71
2021/08/02 00:16:55;;;;;;;4.80;2.65;;;16.70;99.90;;;;;;5083936;28;20032;-71
2021/08/02 00:19:21;;;;;;;4.53;2.60;;;16.60;99.90;;;;;;5068655;28;20028;-71
2021/08/02 00:21:47;;;;;;;3.50;2.03;;;16.60;99.90;;;;;;5033482;28;20032;-71
2021/08/02 00:24:13;;;;;;;3.60;2.13;;;16.60;99.90;;;;;;5084505;28;20108;-71
2021/08/02 00:26:39;;;;;;;3.83;2.40;;;16.60;99.90;;;;;;5033404;28;20036;-72
2021/08/02 00:29:10;;;;;;;4.80;2.60;;;16.60;99.90;;;;;;5066709;28;20028;-71
2021/08/02 00:31:36;;;;;;;3.80;2.53;;;16.50;99.90;;;;;;5066065;28;20031;-71
2021/08/02 00:34:02;;;;;;;4.43;2.80;;;16.50;99.90;;;;;;5067997;28;20108;-71
2021/08/02 00:36:44;;;;;;;5.20;2.90;;;16.50;99.90;;;;;;5083348;28;20089;-71
2021/08/02 00:39:15;;;;;;;4.47;3.40;;;16.50;99.90;;;;;;5053831;28;20079;-71
2021/08/02 00:42:00;;;;;;;4.40;2.90;;;16.50;99.90;;;;;;5033887;28;20117;-71
2021/08/02 00:44:50;;;;;;;5.07;3.03;;;16.40;99.90;;;;;;5051971;28;20024;-72
2021/08/02 00:47:17;;;;;;;5.72;3.30;;;16.40;99.90;;;;;;5034413;28;20029;-72
2021/08/02 00:49:50;;;;;;;4.40;2.97;;;16.40;99.90;;;;;;5083275;28;20085;-72
2021/08/02 00:52:19;;;;;;;5.03;3.10;;;16.50;99.90;;;;;;5066866;28;20033;-72
2021/08/02 00:54:45;;;;;;;4.00;2.60;;;16.50;99.90;;;;;;5084208;28;20056;-71
2021/08/02 00:57:10;;;;;;;4.95;2.80;;;16.50;99.90;;;;;;5066427;28;20109;-73
2021/08/02 00:59:38;;;;;;;3.65;2.50;;;16.50;99.90;;;;;;5065875;28;20175;-73
2021/08/02 01:02:04;;;;;;;3.35;2.30;;;16.60;99.90;;;;;;5083428;28;20500;-73
2021/08/02 01:04:31;;;;;;;4.35;2.20;;;16.60;99.90;;;;;;5083829;28;20032;-73
2021/08/02 01:06:59;;;;;;;4.93;2.35;;;16.60;99.90;;;;;;5084047;28;20025;-73
2021/08/02 01:09:25;;;;;;;4.55;2.47;;;16.60;99.90;;;;;;5082629;28;20033;-73
2021/08/02 01:11:58;;;;;;;4.45;2.55;;;16.60;99.90;;;;;;5013682;28;20039;-73
2021/08/02 01:14:24;;;;;;;4.05;2.30;;;16.60;99.90;;;;;;5065780;28;20125;-73
2021/08/02 01:16:49;;;;;;;4.28;2.67;;;16.60;99.90;;;;;;5083120;28;20033;-73
2021/08/02 01:19:15;;;;;;;4.47;2.30;;;16.60;99.90;;;;;;5051629;28;20378;-73
2021/08/02 01:21:41;;;;;;;3.67;2.40;;;16.60;99.90;;;;;;5019117;28;20452;-73
2021/08/02 01:24:07;;;;;;;4.05;2.60;;;16.60;99.90;;;;;;5067197;28;20476;-73
2021/08/02 01:26:42;;;;;;;3.63;2.10;;;16.60;99.90;;;;;;5018242;28;20049;-73
2021/08/02 01:29:45;;;;;;;4.25;2.60;;;16.60;99.90;;;;;;5067454;28;20050;-73
2021/08/02 01:32:14;;;;;;;4.40;2.50;;;16.60;99.90;;;;;;5067335;28;20054;-73
2021/08/02 01:34:40;;;;;;;4.60;2.60;;;16.60;99.90;;;;;;5065280;28;20039;-73
2021/08/02 01:37:05;;;;;;;5.00;2.40;;;16.60;99.90;;;;;;5082801;28;20028;-73
2021/08/02 01:39:33;;;;;;;4.43;2.53;;;16.60;99.90;;;;;;5083210;28;20036;-73
2021/08/02 01:42:01;;;;;;;4.68;2.40;;;16.50;99.90;;;;;;5048657;28;20183;-73
2021/08/02 01:44:29;;;;;;;4.93;2.70;;;16.50;99.90;;;;;;5049799;28;20067;-73
2021/08/02 01:47:24;;;;;;;5.30;2.63;;;16.50;99.90;;;;;;5067722;28;20028;-73
2021/08/02 01:50:11;;;;;;;4.40;2.42;;;16.60;99.90;;;;;;5050751;28;20133;-73
2021/08/02 01:52:41;;;;;;;3.88;2.50;;;16.50;99.90;;;;;;5050387;28;20042;-73
2021/08/02 01:55:11;;;;;;;4.10;2.20;;;16.40;99.90;;;;;;5050210;28;20047;-73
2021/08/02 01:57:42;;;;;;;4.00;2.30;;;16.50;99.90;;;;;;5065720;28;20032;-73
2021/08/02 02:00:16;;;;;;;4.57;2.70;;;16.50;99.90;;;;;;5033195;28;20055;-73
2021/08/02 02:02:50;;;;;;;3.78;2.47;;;16.50;99.90;;;;;;5082116;28;20320;-73
2021/08/02 02:05:21;;;;;;;4.20;2.50;;;16.50;99.90;;;;;;5050735;28;20413;-73
2021/08/02 02:08:08;;;;;;;4.40;2.58;;;16.40;99.90;;;;;;5044180;28;20119;-74
2021/08/02 02:10:38;;;;;;;4.28;2.67;;;16.40;99.90;;;;;;5066768;28;20526;-73
2021/08/02 02:13:18;;;;;;;5.38;3.28;;;16.40;99.90;;;;;;5082768;28;20032;-73
2021/08/02 02:15:48;;;;;;;5.38;3.03;;;16.30;99.90;;;;;;5063606;28;20024;-73
2021/08/02 02:18:14;;;;;;;4.03;2.63;;;16.30;99.90;;;;;;5063949;28;20063;-74
2021/08/02 02:20:45;;;;;;;5.28;3.08;;;16.30;99.90;;;;;;5083270;28;20039;-73
2021/08/02 02:23:16;;;;;;;5.35;3.42;;;16.30;99.90;;;;;;5064899;28;20028;-73
2021/08/02 02:25:42;;;;;;;4.18;3.00;;;16.20;99.90;;;;;;5048449;28;20029;-73
2021/08/02 02:28:12;;;;;;;5.90;3.10;;;16.20;99.90;;;;;;5050187;28;20041;-73
2021/08/02 02:30:38;;;;;;;4.75;2.70;;;16.20;99.90;;;;;;5081233;28;20060;-73
2021/08/02 02:33:04;;;;;;;4.10;2.60;;;16.20;99.90;;;;;;5030867;28;20041;-73
2021/08/02 02:35:30;;;;;;;4.63;3.10;;;16.30;99.90;;;;;;5067168;28;20353;-73
2021/08/02 02:37:58;;;;;;;4.43;3.10;;;16.30;99.90;;;;;;5048876;28;20109;-73
2021/08/02 02:40:23;;;;;;;3.88;2.72;;;16.30;99.90;;;;;;5082436;28;20115;-73
2021/08/02 02:42:52;;;;;;;5.18;2.60;;;16.30;99.90;;;;;;5048101;28;20480;-73
2021/08/02 02:45:20;;;;;;;4.35;2.70;;;16.40;99.90;;;;;;5049146;28;20033;-74
2021/08/02 02:47:45;;;;;;;4.20;2.83;;;16.40;99.90;;;;;;5064161;28;20109;-73
2021/08/02 02:50:13;;;;;;;5.25;2.75;;;16.40;99.90;;;;;;5047491;28;20147;-73
2021/08/02 02:52:41;;;;;;;4.57;2.67;;;16.40;99.90;;;;;;5066014;28;20036;-74
2021/08/02 02:55:08;;;;;;;4.72;2.58;;;16.40;99.90;;;;;;5052412;28;20114;-73
2021/08/02 02:57:38;;;;;;;3.60;2.40;;;16.40;99.90;;;;;;5085704;28;20055;-73
2021/08/02 03:00:07;;;;;;;5.32;2.97;;;16.40;99.90;;;;;;5069402;28;20489;-73
2021/08/02 03:02:33;;;;;;;4.90;2.85;;;16.40;99.90;;;;;;5051927;28;20468;-73
2021/08/02 03:04:59;;;;;;;4.88;3.20;;;16.40;99.90;;;;;;5069046;28;20028;-73
2021/08/02 03:07:25;;;;;;;4.95;2.72;;;16.40;99.90;;;;;;5069458;28;20020;-73
2021/08/02 03:09:51;;;;;;;4.97;2.50;;;16.30;99.90;;;;;;5085516;28;20024;-73
2021/08/02 03:12:17;;;;;;;4.88;2.90;;;16.30;99.90;;;;;;5051709;28;20039;-74
2021/08/02 03:14:42;;;;;;;6.70;2.90;;;16.30;99.90;;;;;;5050724;28;20094;-73
2021/08/02 03:17:08;;;;;;;4.00;2.70;;;16.30;99.90;;;;;;5086004;28;20548;-73
2021/08/02 03:19:37;;;;;;;8.05;2.92;;;16.30;99.90;;;;;;5086201;28;20036;-73
2021/08/02 03:22:31;;;;;;;4.85;2.80;;;16.30;99.90;;;;;;5085055;28;20028;-73
2021/08/02 03:25:13;;;;;;;4.45;2.78;;;16.30;99.90;;;;;;5057488;28;20449;-73
2021/08/02 03:27:58;;;;;;;4.80;2.90;;;16.30;99.90;;;;;;5069715;28;20025;-74
2021/08/02 03:30:24;;;;;;;4.85;2.90;;;16.30;99.90;;;;;;5067382;28;20359;-73
2021/08/02 03:32:50;;;;;;;5.25;2.80;;;16.20;99.90;;;;;;5051347;28;20044;-74
2021/08/02 03:35:18;;;;;;;5.13;2.83;;;16.20;99.90;;;;;;5067979;28;20029;-74
2021/08/02 03:37:44;;;;;;;5.28;3.03;;;16.20;99.90;;;;;;5052735;28;20040;-73
2021/08/02 03:40:12;;;;;;;4.47;2.75;;;16.20;99.90;;;;;;5026410;28;20040;-73
2021/08/02 03:42:39;;;;;;;5.93;2.90;;;16.20;99.90;;;;;;5038870;28;20043;-73
2021/08/02 03:45:07;;;;;;;5.00;3.17;;;16.20;99.90;;;;;;5069591;28;20025;-74
2021/08/02 03:47:33;;;;;;;4.63;2.80;;;16.20;99.90;;;;;;5052214;28;20123;-73
2021/08/02 03:49:59;;;;;;;5.30;2.90;;;16.10;99.90;;;;;;5068246;28;20092;-73
2021/08/02 03:52:24;;;;;;;4.80;2.80;;;16.20;99.90;;;;;;5051436;28;20039;-74
2021/08/02 03:54:52;;;;;;;4.85;2.63;;;16.00;99.90;;;;;;5085349;28;20473;-74
2021/08/02 03:57:18;;;;;;;4.43;2.97;;;16.00;99.90;;;;;;5068113;28;20032;-75
2021/08/02 03:59:49;;;;;;;4.57;2.72;;;16.00;99.90;;;;;;5064920;28;20048;-74
2021/08/02 04:02:14;;;;;;;4.40;2.45;;;16.00;99.90;;;;;;5067445;28;20029;-74
2021/08/02 04:04:40;;;;;;;4.88;2.65;;;16.00;99.90;;;;;;5067556;28;20035;-74
2021/08/02 04:07:06;;;;;;;5.97;3.30;;;16.00;99.90;;;;;;5068475;28;20034;-74
2021/08/02 04:09:31;;;;;;;5.10;3.03;;;15.90;99.90;;;;;;5068891;28;20024;-74
2021/08/02 04:11:57;;;;;;;6.22;2.65;;;16.00;99.90;;;;;;5068014;28;20150;-74
2021/08/02 04:14:25;;;;;;;4.85;3.00;;;16.00;99.90;;;;;;5085435;28;20036;-73
2021/08/02 04:16:51;;;;;;;5.47;3.20;;;16.00;99.90;;;;;;5067782;28;20036;-74
2021/08/02 04:19:17;;;;;;;5.25;3.10;;;16.00;99.90;;;;;;5050416;28;20032;-74
2021/08/02 04:21:45;;;;;;;4.97;3.15;;;16.00;99.90;;;;;;5083997;28;20037;-74
2021/08/02 04:24:10;;;;;;;5.32;3.33;;;15.90;99.90;;;;;;5070126;28;20034;-74
2021/08/02 04:26:38;;;;;;;5.38;3.22;;;15.90;99.90;;;;;;5050287;28;20886;-73
2021/08/02 04:29:06;;;;;;;4.78;3.20;;;15.90;99.90;;;;;;5083756;28;20032;-73
2021/08/02 04:31:32;;;;;;;6.18;3.50;;;15.90;99.90;;;;;;5048887;28;20028;-74
2021/08/02 04:33:58;;;;;;;4.53;2.90;;;15.90;99.90;;;;;;5083723;28;20485;-74
2021/08/02 04:36:26;;;;;;;5.10;3.70;;;15.90;99.90;;;;;;5065993;28;20461;-74
2021/08/02 04:38:57;;;;;;;6.85;3.67;;;15.90;99.90;;;;;;5083076;28;20025;-74
2021/08/02 04:41:25;;;;;;;5.63;3.80;;;15.90;99.90;;;;;;5067622;28;20206;-75
2021/08/02 04:43:53;;;;;;;6.25;3.70;;;15.90;99.90;;;;;;5050395;28;20385;-74
2021/08/02 04:46:21;;;;;;;4.88;3.67;;;15.90;99.90;;;;;;5067951;28;20166;-74
2021/08/02 04:48:46;;;;;;;5.90;3.90;;;15.80;99.90;;;;;;5067770;28;20033;-74
2021/08/02 04:51:15;;;;;;;5.93;3.72;;;15.90;99.90;;;;;;5067442;28;20032;-74
2021/08/02 04:53:40;;;;;;;7.68;3.60;;;15.90;99.90;;;;;;5050298;28;20646;-74
2021/08/02 04:56:08;;;;;;;5.75;3.78;;;15.90;99.90;;;;;;5067216;28;20028;-74
2021/08/02 04:58:34;;;;;;;5.72;3.38;;;15.90;99.90;;;;;;5050305;28;20076;-74
2021/08/02 05:01:00;;;;;;;5.55;3.47;;;16.00;99.90;;;;;;5048514;28;20180;-74
2021/08/02 05:03:25;;;;;;;6.25;3.20;;;16.00;99.90;;;;;;5049279;28;20036;-73
2021/08/02 05:05:54;;;;;;;5.93;3.40;;;16.00;99.90;;;;;;5067041;28;20039;-74
2021/08/02 05:08:23;;;;;;;5.85;3.30;;;16.00;99.90;;;;;;5021388;28;20972;-73
2021/08/02 05:10:49;;;;;;;5.07;3.70;;;16.10;99.90;;;;;;5067299;28;20429;-73
2021/08/02 05:13:17;;;;;;;4.80;3.10;;;16.00;99.90;;;;;;5067963;28;20043;-74
2021/08/02 05:15:42;;;;;;;6.30;3.42;;;16.00;99.90;;;;;;5066768;28;20032;-73
2021/08/02 05:18:11;;;;;;;5.75;3.28;;;16.00;99.90;;;;;;5048632;28;20029;-73
2021/08/02 05:20:39;;;;;;;6.70;3.47;;;16.00;99.90;;;;;;5046400;28;20461;-73
2021/08/02 05:23:04;;;;;;;5.90;3.50;;;16.00;99.90;;;;;;5049944;28;20028;-73
2021/08/02 05:25:30;;;;;;;6.57;3.50;;;16.00;99.90;;;;;;5046638;28;20050;-74
2021/08/02 05:27:55;;;;;;;5.50;3.55;;;16.10;99.90;;;;;;5067205;28;20106;-74
2021/08/02 05:30:22;;;;;;;4.97;3.28;;;16.10;99.90;;;;;;5050121;28;20074;-73
2021/08/02 05:32:48;;;;;;;6.38;3.65;;;16.10;99.90;;;;;;5049864;28;20033;-74
2021/08/02 05:35:17;;;;;;;6.38;3.33;;;16.10;99.90;;;;;;5049794;28;20042;-73
2021/08/02 05:37:42;;;;;;;6.60;3.20;;;16.10;99.90;;;;;;5064696;28;20028;-73
2021/08/02 05:40:11;;;;;;;6.10;3.17;;;16.20;99.90;;;;;;5066471;28;20039;-73
2021/08/02 05:42:36;;;;;;;6.20;3.40;;;16.30;99.90;;;;;;5033840;28;20030;-74
2021/08/02 05:45:06;;;;;;;5.03;3.25;;;16.30;99.90;;;;;;5067375;28;20032;-74
2021/08/02 05:47:32;;;;;;;4.50;3.03;;;16.40;99.90;;;;;;5065627;28;20111;-73
2021/08/02 05:49:58;;;;;;;4.63;3.17;;;16.40;99.90;;;;;;5032394;28;20125;-74
2021/08/02 05:52:23;;;;;;;5.22;3.28;;;16.50;99.90;;;;;;5066909;28;20028;-74
2021/08/02 05:54:49;;;;;;;5.90;3.45;;;16.50;99.90;;;;;;5066481;28;20497;-70
2021/08/02 05:57:21;;;;;;;5.43;2.95;;;16.50;99.90;;;;;;5082666;28;20035;-72
2021/08/02 05:59:48;;;;;;;6.30;3.92;;;16.50;99.90;;;;;;5045550;28;20084;-72
2021/08/02 06:02:16;;;;;;;4.95;3.40;;;16.60;99.90;;;;;;5008202;28;20965;-74
2021/08/02 06:04:42;;;;;;;5.40;3.40;;;16.60;99.90;;;;;;5006745;28;22637;-74
2021/08/02 06:07:08;;;;;;;4.80;3.58;;;16.70;99.90;;;;;;5008388;28;20036;-74
2021/08/02 06:09:34;;;;;;;5.63;3.85;;;16.70;99.90;;;;;;5024649;28;20054;-74
2021/08/02 06:12:04;;;;;;;6.43;3.50;;;16.60;99.90;;;;;;4991420;28;20044;-74
2021/08/02 06:14:29;;;;;;;6.15;3.97;;;16.80;99.90;;;;;;4981368;28;20356;-74
2021/08/02 06:16:55;;;;;;;6.25;4.30;;;16.70;99.90;;;;;;5009281;28;20032;-74
2021/08/02 06:19:21;;;;;;;5.68;3.80;;;16.70;99.90;;;;;;5026967;28;20447;-71
2021/08/02 06:21:47;;;;;;;10.95;9.07;;;16.60;99.90;;;;;;4989893;28;20112;-71
2021/08/02 06:24:12;;;;;;;7.40;5.80;;;16.70;99.90;;;;;;5006599;28;20079;-75
2021/08/02 06:26:38;;;;;;;6.57;4.40;;;16.80;99.90;;;;;;5025769;28;20376;-74
2021/08/02 06:29:04;;;;;;;7.40;4.38;;;16.90;99.90;;;;;;5032701;28;20033;-75
2021/08/02 06:31:30;;;;;;;7.78;4.07;;;16.80;99.90;;;;;;5015111;28;20617;-74
2021/08/02 06:33:56;;;;;;;6.38;4.40;;;16.90;99.90;;;;;;5046174;28;20112;-74
2021/08/02 06:36:21;;;;;;;6.55;4.28;;;17.00;99.90;;;;;;5047554;28;20028;-74
2021/08/02 06:38:49;;;;;;;6.43;3.88;;;17.00;99.90;;;;;;4978857;28;20103;-74
2021/08/02 06:41:18;;;;;;;7.32;3.75;;;17.00;99.90;;;;;;5013506;28;20199;-71
2021/08/02 06:43:46;;;;;;;8.85;7.38;;;17.00;99.90;;;;;;5031788;28;20041;-71
2021/08/02 06:46:11;;;;;;;10.20;7.65;;;17.00;99.90;;;;;;5014217;28;20029;-74
2021/08/02 06:48:39;;;;;;;9.45;5.53;;;17.10;99.90;;;;;;5031833;28;20075;-74
2021/08/02 06:51:05;;;;;;;6.82;4.20;;;17.10;99.90;;;;;;5014356;28;20028;-74
2021/08/02 06:53:31;;;;;;;6.15;3.90;;;17.20;99.90;;;;;;5032137;28;20046;-74
2021/08/02 06:55:58;;;;;;;6.30;3.72;;;17.20;99.90;;;;;;5031682;28;20493;-74
2021/08/02 06:58:26;;;;;;;6.35;4.60;;;17.30;99.90;;;;;;5047801;28;21835;-73
2021/08/02 07:00:52;;;;;;;6.28;4.60;;;17.20;99.90;;;;;;5051699;28;20033;-74
2021/08/02 07:03:17;;;;;;;7.13;4.18;;;17.20;99.90;;;;;;5051166;28;20033;-73
2021/08/02 07:05:45;;;;;;;6.65;4.20;;;17.20;99.90;;;;;;5049722;28;20029;-74
2021/08/02 07:08:11;;;;;;;7.18;4.05;;;17.20;99.90;;;;;;5033364;28;20020;-74
2021/08/02 07:10:37;;;;;;;5.93;4.30;;;17.20;99.90;;;;;;5031789;28;20055;-73
2021/08/02 07:13:02;;;;;;;6.70;4.40;;;17.10;99.90;;;;;;5034915;28;20461;-74
2021/08/02 07:15:28;;;;;;;7.25;4.28;;;17.10;99.90;;;;;;5033225;28;20129;-73
2021/08/02 07:17:54;;;;;;;6.88;4.20;;;17.00;99.90;;;;;;5032978;28;20102;-74
2021/08/02 07:20:19;;;;;;;6.85;4.85;;;17.10;99.90;;;;;;5034020;28;20064;-73
2021/08/02 07:22:45;;;;;;;7.85;4.45;;;17.10;99.90;;;;;;5032633;28;20025;-73
2021/08/02 07:25:13;;;;;;;6.07;3.80;;;17.00;99.90;;;;;;5051359;28;20096;-74
2021/08/02 07:27:41;;;;;;;8.18;4.13;;;17.10;99.90;;;;;;5051696;28;20021;-74
2021/08/02 07:30:08;;;;;;;8.43;5.13;;;17.10;99.90;;;;;;5049959;28;20029;-74
2021/08/02 07:32:33;;;;;;;6.63;4.35;;;17.00;99.90;;;;;;5066959;28;20043;-74
2021/08/02 07:34:59;;;;;;;7.95;5.07;;;17.10;99.90;;;;;;5033025;28;20040;-73
2021/08/02 07:37:29;;;;;;;6.78;4.68;;;17.10;99.90;;;;;;5049975;28;20051;-74
2021/08/02 07:39:55;;;;;;;6.80;4.00;;;17.10;99.90;;;;;;5063687;28;20410;-73
2021/08/02 07:42:21;;;;;;;6.45;3.97;;;17.20;99.90;;;;;;5030345;28;20070;-73
2021/08/02 07:44:46;;;;;;;8.52;5.03;;;17.30;99.90;;;;;;5047187;28;20020;-73
2021/08/02 07:47:12;;;;;;;8.27;4.47;;;17.30;99.90;;;;;;5047334;28;20456;-70
2021/08/02 07:49:38;;;;;;;6.57;3.97;;;17.40;99.90;;;;;;5014301;28;20029;-69
2021/08/02 07:52:04;;;;;;;6.90;4.15;;;17.60;99.90;;;;;;5046782;28;20060;-73
2021/08/02 07:54:32;;;;;;;5.88;3.85;;;17.50;99.90;;;;;;5029709;28;20037;-74
2021/08/02 07:57:00;;;;;;;7.47;3.97;;;17.50;99.90;;;;;;5047648;28;20053;-73
2021/08/02 07:59:29;;;;;;;7.35;4.00;;;17.60;99.90;;;;;;5028521;28;20044;-74
2021/08/02 08:01:54;;;;;;;7.60;4.07;;;17.60;99.90;;;;;;5046294;28;20363;-73
2021/08/02 08:04:21;;;;;;;7.45;3.70;;;17.70;99.90;;;;;;5046521;28;20031;-74
2021/08/02 08:06:47;;;;;;;5.93;3.53;;;17.80;99.90;;;;;;5046903;28;20039;-74
2021/08/02 08:09:13;;;;;;;6.43;3.40;;;17.80;99.90;;;;;;5047091;28;20123;-74
2021/08/02 08:11:39;;;;;;;5.03;3.38;;;17.90;99.90;;;;;;5029443;28;20135;-74
2021/08/02 08:14:04;;;;;;;5.97;3.40;;;18.00;99.90;;;;;;5048242;28;20036;-74
2021/08/02 08:16:30;;;;;;;7.07;3.60;;;18.10;99.90;;;;;;5030092;28;20020;-73
2021/08/02 08:18:56;;;;;;;5.45;3.30;;;18.00;99.90;;;;;;5029138;28;20432;-74
2021/08/02 08:21:22;;;;;;;5.85;3.20;;;18.00;99.90;;;;;;5047032;28;20025;-74
2021/08/02 08:23:52;;;;;;;5.68;2.95;;;18.20;99.90;;;;;;5046020;28;20362;-74
2021/08/02 08:26:22;;;;;;;5.28;2.97;;;18.10;99.90;;;;;;5000117;28;20059;-74
2021/08/02 08:28:47;;;;;;;6.07;2.92;;;18.10;99.90;;;;;;5002428;28;20045;-74
2021/08/02 08:31:17;;;;;;;5.97;3.05;;;18.30;99.90;;;;;;5026527;28;20665;-73
2021/08/02 08:33:43;;;;;;;5.40;3.00;;;18.20;99.90;;;;;;5026779;28;20522;-74
2021/08/02 08:36:15;;;;;;;5.50;3.10;;;18.20;99.90;;;;;;5047539;28;20036;-73
2021/08/02 08:38:43;;;;;;;4.78;2.92;;;18.30;99.90;;;;;;5062105;28;20052;-73
2021/08/02 08:41:12;;;;;;;5.70;2.88;;;18.30;99.90;;;;;;5047268;28;20032;-74
2021/08/02 08:43:44;;;;;;;5.78;3.08;;;18.30;99.90;;;;;;5046929;28;20044;-74
2021/08/02 08:46:09;;;;;;;6.38;2.88;;;18.40;99.90;;;;;;5029930;28;20029;-74
2021/08/02 08:48:35;;;;;;;5.72;2.75;;;18.30;99.90;;;;;;5045715;28;20035;-74
2021/08/02 08:51:02;;;;;;;6.47;3.15;;;18.30;99.90;;;;;;5029042;28;20472;-74
2021/08/02 08:53:28;;;;;;;5.20;2.60;;;18.40;99.90;;;;;;5061992;28;20062;-74
2021/08/02 08:55:56;;;;;;;6.82;3.20;;;18.50;99.90;;;;;;5012367;28;20112;-74
2021/08/02 08:58:22;;;;;;;6.28;2.90;;;18.50;99.90;;;;;;5061030;28;20135;-73
2021/08/02 09:00:59;;;;;;;4.72;2.70;;;18.60;99.90;;;;;;5015489;28;20047;-72
2021/08/02 09:03:29;;;;;;;9.43;4.07;;;18.50;99.90;;;;;;5059174;28;20036;-70
2021/08/02 09:06:01;;;;;;;5.70;3.20;;;18.70;99.90;;;;;;5047193;28;20028;-74
2021/08/02 09:08:27;;;;;;;5.82;2.72;;;18.70;99.90;;;;;;5043038;28;20021;-74
2021/08/02 09:11:00;;;;;;;6.25;3.00;;;18.80;99.90;;;;;;5027865;28;20478;-75
2021/08/02 09:13:30;;;;;;;8.27;3.58;;;19.00;99.90;;;;;;5029246;28;20032;-74
2021/08/02 09:15:58;;;;;;;6.47;3.20;;;19.00;99.90;;;;;;5063207;28;20085;-71
2021/08/02 09:18:23;;;;;;;5.93;2.97;;;19.00;99.90;;;;;;5043269;28;20044;-73
2021/08/02 09:21:00;;;;;;;5.15;2.78;;;19.10;99.90;;;;;;5046074;28;20870;-73
2021/08/02 09:23:28;;;;;;;6.72;3.08;;;19.10;99.90;;;;;;5029232;28;20036;-72
2021/08/02 09:25:54;;;;;;;5.25;3.00;;;18.90;99.90;;;;;;5045707;28;20032;-72
2021/08/02 09:28:23;;;;;;;7.57;2.95;;;19.00;99.90;;;;;;5044887;28;20040;-72
2021/08/02 09:30:56;;;;;;;6.10;2.85;;;19.10;99.90;;;;;;5025753;28;20024;-73
2021/08/02 09:33:27;;;;;;;5.75;3.00;;;19.10;99.90;;;;;;5061882;28;20115;-73
2021/08/02 09:35:52;;;;;;;5.15;2.70;;;18.90;99.90;;;;;;5027624;28;20119;-72
2021/08/02 09:38:20;;;;;;;7.50;2.90;;;19.10;99.90;;;;;;5045213;28;20161;-72
2021/08/02 09:40:53;;;;;;;6.10;3.10;;;19.00;99.90;;;;;;5028314;28;20028;-72
2021/08/02 09:43:20;;;;;;;8.98;3.10;;;18.90;99.90;;;;;;5029182;28;20025;-72
2021/08/02 09:45:54;;;;;;;6.80;3.38;;;18.90;99.90;;;;;;5044321;28;20017;-72
2021/08/02 09:48:32;;;;;;;7.68;3.10;;;19.00;99.90;;;;;;5044387;28;20546;-72
2021/08/02 09:51:11;;;;;;;7.28;3.28;;;18.90;99.90;;;;;;5029756;28;20040;-72
2021/08/02 09:53:42;;;;;;;5.68;2.75;;;19.00;99.90;;;;;;5044550;28;20067;-72
2021/08/02 09:56:12;;;;;;;6.18;3.17;;;19.00;99.90;;;;;;5061568;28;20048;-73
2021/08/02 09:58:40;;;;;;;5.03;2.80;;;19.00;99.90;;;;;;5060533;28;20075;-72
2021/08/02 10:01:08;;;;;;;5.68;2.60;;;19.10;99.90;;;;;;5045092;28;20034;-73
2021/08/02 10:03:34;;;;;;;6.65;2.90;;;19.30;99.90;;;;;;5034225;28;20043;-73
2021/08/02 10:06:00;;;;;;;5.55;3.05;;;19.30;99.90;;;;;;5027373;28;20029;-73
2021/08/02 10:08:27;;;;;;;6.13;2.88;;;19.50;99.90;;;;;;5049020;28;20523;-73
2021/08/02 10:10:53;;;;;;;5.07;2.67;;;19.60;99.90;;;;;;5059572;28;20031;-73
2021/08/02 10:13:26;;;;;;;5.78;2.90;;;19.60;99.90;;;;;;5045295;28;20037;-73
2021/08/02 10:15:55;;;;;;;8.57;4.97;;;19.70;99.90;;;;;;5026780;28;21619;-69
2021/08/02 10:18:23;;;;;;;5.60;3.10;;;19.60;98.40;;;;;;5027325;28;20111;-69
2021/08/02 10:20:49;;;;;;;6.22;2.80;;;19.60;99.90;;;;;;5028504;28;20101;-74
2021/08/02 10:23:25;;;;;;;5.90;2.90;;;19.60;99.90;;;;;;5003715;28;20125;-73
2021/08/02 10:25:51;;;;;;;5.10;2.67;;;19.80;99.90;;;;;;5045091;28;20036;-73
2021/08/02 10:28:18;;;;;;;6.07;2.50;;;19.70;99.90;;;;;;5043190;28;20029;-74
2021/08/02 10:30:48;;;;;;;5.50;2.70;;;19.70;99.90;;;;;;5043725;28;20912;-73
2021/08/02 10:33:18;;;;;;;7.00;3.10;;;19.60;98.10;;;;;;5042687;28;20033;-74
2021/08/02 10:35:45;;;;;;;5.30;2.90;;;19.70;97.90;;;;;;5042343;28;20124;-73
2021/08/02 10:38:15;;;;;;;5.40;2.58;;;19.40;98.60;;;;;;5045707;28;20351;-75
2021/08/02 10:40:49;;;;;;;6.07;2.38;;;19.60;95.40;;;;;;5045543;28;20076;-72
2021/08/02 10:43:33;;;;;;;5.07;2.20;;;19.60;94.80;;;;;;5044553;28;20029;-74
2021/08/02 10:46:15;;;;;;;4.95;2.25;;;19.80;93.30;;;;;;5045581;28;20734;-73
2021/08/02 10:48:44;;;;;;;5.32;2.42;;;20.10;99.50;;;;;;5046001;28;20029;-73
2021/08/02 10:51:11;;;;;;;5.40;2.50;;;20.30;99.30;;;;;;5061205;28;20124;-74
2021/08/02 10:53:37;;;;;;;5.95;2.50;;;20.20;93.70;;;;;;5060954;28;20107;-73
2021/08/02 10:56:06;;;;;;;3.70;2.22;;;20.10;90.40;;;;;;5044270;28;20043;-73
2021/08/02 10:58:39;;;;;;;4.15;2.20;;;20.00;92.10;;;;;;5026144;28;20055;-73
2021/08/02 11:01:14;;;;;;;5.03;2.30;;;19.90;92.90;;;;;;5044970;28;20040;-73
2021/08/02 11:03:43;;;;;;;5.93;2.60;;;19.90;97.60;;;;;;5041472;28;20591;-72
2021/08/02 11:06:12;;;;;;;5.22;2.22;;;19.90;93.50;;;;;;5045559;28;20029;-72
2021/08/02 11:08:45;;;;;;;5.03;2.53;;;20.00;97.20;;;;;;5026056;28;20104;-73
2021/08/02 11:11:17;;;;;;;6.55;2.50;;;19.80;98.50;;;;;;5059538;28;20025;-73
2021/08/02 11:13:43;;;;;;;5.90;2.70;;;19.80;93.00;;;;;;4993077;28;20044;-72
2021/08/02 11:16:09;;;;;;;4.85;2.38;;;19.70;94.70;;;;;;5029326;28;20056;-72
2021/08/02 11:18:34;;;;;;;4.53;2.40;;;19.60;93.30;;;;;;5023301;28;20074;-72
2021/08/02 11:21:00;;;;;;;9.93;7.03;;;19.70;94.10;;;;;;5029296;28;20131;-69
2021/08/02 11:23:36;;;;;;;6.97;2.75;;;19.60;94.20;;;;;;5048358;28;20358;-70
2021/08/02 11:26:09;;;;;;;4.50;2.60;;;19.80;95.00;;;;;;5013206;28;20031;-73
2021/08/02 11:28:48;;;;;;;4.50;2.63;;;20.00;93.20;;;;;;5048751;28;20036;-72
2021/08/02 11:31:16;;;;;;;5.50;2.53;;;20.00;93.90;;;;;;5048367;28;20974;-74
2021/08/02 11:33:43;;;;;;;5.05;2.60;;;20.00;94.20;;;;;;5047166;28;20075;-72
2021/08/02 11:36:21;;;;;;;6.05;2.38;;;20.10;94.60;;;;;;5063606;28;20103;-73
2021/08/02 11:38:47;;;;;;;4.47;2.50;;;20.20;94.60;;;;;;5004441;28;20028;-73
2021/08/02 11:41:29;;;;;;;4.43;2.53;;;20.50;94.30;;;;;;5048803;28;20043;-73
2021/08/02 11:43:57;;;;;;;5.93;2.55;;;20.40;91.10;;;;;;5047372;28;20025;-73
2021/08/02 11:46:25;;;;;;;3.80;2.38;;;20.50;95.70;;;;;;5046089;28;20103;-74
2021/08/02 11:48:50;;;;;;;5.07;2.20;;;20.70;96.70;;;;;;4996423;28;20031;-73
2021/08/02 11:51:19;;;;;;;4.00;1.77;;;20.80;90.90;;;;;;5030857;28;20638;-73
2021/08/02 11:53:44;;;;;;;4.50;2.05;;;21.00;92.50;;;;;;5063685;28;20539;-72
2021/08/02 11:56:17;;;;;;;4.45;1.92;;;21.20;92.40;;;;;;5030514;28;20123;-72
2021/08/02 11:58:46;;;;;;;3.42;2.10;;;21.10;91.30;;;;;;5029265;28;20122;-68
2021/08/02 12:01:17;;;;;;;4.38;2.20;;;21.20;90.20;;;;;;5029303;28;20036;-69
2021/08/02 12:03:44;;;;;;;3.95;1.80;;;21.00;86.20;;;;;;5028946;28;20472;-73
2021/08/02 12:06:12;;;;;;;3.20;1.70;;;21.00;90.10;;;;;;5062437;28;20105;-72
2021/08/02 12:08:48;;;;;;;4.28;2.25;;;20.90;90.10;;;;;;5047118;28;20029;-72
2021/08/02 12:11:14;;;;;;;3.45;1.90;;;20.80;87.60;;;;;;5047684;28;20116;-73
2021/08/02 12:13:47;;;;;;;3.20;1.95;;;20.90;88.30;;;;;;5029266;28;20032;-73
2021/08/02 12:16:30;;;;;;;5.22;2.20;;;20.90;86.20;;;;;;5046727;28;20523;-74
2021/08/02 12:19:03;;;;;;;4.15;2.20;;;21.10;87.20;;;;;;5046799;28;20037;-72
2021/08/02 12:21:32;;;;;;;2.50;1.83;;;21.20;88.20;;;;;;5063748;28;20037;-73
2021/08/02 12:24:06;;;;;;;3.63;1.92;;;21.10;84.10;;;;;;5047217;28;20032;-73
2021/08/02 12:26:31;;;;;;;3.42;1.80;;;21.10;91.00;;;;;;5061791;28;20045;-71
2021/08/02 12:28:57;;;;;;;3.20;1.75;;;21.10;90.90;;;;;;5047189;28;20644;-72
2021/08/02 12:31:27;;;;;;;3.78;1.80;;;20.90;86.90;;;;;;5029277;28;20037;-72
2021/08/02 12:33:53;;;;;;;4.15;1.77;;;20.80;84.40;;;;;;5047705;28;21729;-73
2021/08/02 12:36:21;;;;;;;3.03;1.80;;;20.70;91.70;;;;;;5046412;28;20035;-72
2021/08/02 12:38:50;;;;;;;3.25;1.80;;;20.50;88.70;;;;;;5062316;28;20029;-72
2021/08/02 12:41:16;;;;;;;3.53;1.80;;;20.30;90.00;;;;;;5047564;28;20028;-72
2021/08/02 12:43:47;;;;;;;2.83;1.77;;;20.40;88.80;;;;;;5048156;28;20405;-73
2021/08/02 12:46:15;;;;;;;3.58;1.90;;;20.20;87.40;;;;;;5030779;28;20040;-72
2021/08/02 12:48:44;;;;;;;3.80;2.00;;;20.20;91.20;;;;;;5045400;28;21181;-72
2021/08/02 12:51:09;;;;;;;8.85;2.67;;;20.30;92.40;;;;;;5047273;28;20112;-69
2021/08/02 12:53:38;;;;;;;7.53;2.90;;;20.10;97.70;;;;;;5011492;28;20041;-68
2021/08/02 12:56:06;;;;;;;7.40;3.03;;;20.00;99.90;;;;;;5028819;28;20723;-67